DW9615 Home Hill AU current weather conditions

sailwx.info

Wind from 052

Air temperature 16.7° C
Dewpoint 15.7° C

Last reported at 2017-Sep-26 18:56 UTC.
Time now 2017-Sep-26 19:55 UTC

Location: S 19°40' E 147°25'.
View on Google Maps.

See reports from other nearby stations

  
Tides and Currents Weather Stations Pressure Air Temp Water Temp Dewpoint Dewpoint Depression Visibility Wind Speed Wind Dir Waves Ship Positions
date/time (UTC)wind fromknots sea level pressurealtimeterstation pressurevisibilityair tempwater tempwave heightnotes
2017-Sep-26 18:56 052 16.7
2017-Sep-26 18:41 051 16.7
2017-Sep-26 18:26 051 16.7
2017-Sep-26 18:11 050 17.2
2017-Sep-26 17:56 049 16.7
2017-Sep-26 17:41 046 17.2
2017-Sep-26 17:26 046 17.2
2017-Sep-26 17:11 043 17.2
2017-Sep-26 16:56 041 17.8
2017-Sep-26 16:41 041 17.8
2017-Sep-26 16:26 040 17.8
2017-Sep-26 16:11 039 17.8
2017-Sep-26 15:56 039 17.8
2017-Sep-26 15:41 038 17.8
2017-Sep-26 15:26 038 17.8
2017-Sep-26 15:10 037 17.8
2017-Sep-26 14:55 036 18.3
2017-Sep-26 14:41 035 18.3
2017-Sep-26 14:25 034 18.9
2017-Sep-26 14:10 031 18.9
2017-Sep-26 13:55 029 18.9
2017-Sep-26 13:40 025 18.9
2017-Sep-26 13:25 024 18.9
2017-Sep-26 13:10 022 19.4
2017-Sep-26 12:55 021 19.4
2017-Sep-26 12:40 020 19.4
2017-Sep-26 12:25 019 19.4
2017-Sep-26 12:10 019 20.0
2017-Sep-26 11:55 018 20.6
2017-Sep-26 11:40 016 20.6
2017-Sep-26 11:25 016 20.6
2017-Sep-26 11:10 014 20.6
2017-Sep-26 10:55 010 20.6
2017-Sep-26 10:40 008 21.1
2017-Sep-26 10:25 008 21.1
2017-Sep-26 10:10 005 21.1
2017-Sep-26 09:55 005 21.7
2017-Sep-26 09:40 003 22.2
2017-Sep-26 09:25 004 22.2
2017-Sep-26 09:10 004 22.8
2017-Sep-26 08:55 340 22.8
2017-Sep-26 08:40 343 23.3
2017-Sep-26 08:25 348 0 gusting 4 23.9
2017-Sep-26 08:10 347 23.9
2017-Sep-26 07:55 024 0 gusting 4 24.4
2017-Sep-26 07:40 327 0 gusting 4 25.0
2017-Sep-26 07:25 008 1 gusting 6 25.6
2017-Sep-26 07:10 323 2 gusting 6 26.1
2017-Sep-26 06:55 333 5 gusting 8 27.2
2017-Sep-26 06:40 341 2 gusting 6 27.2
2017-Sep-26 06:25 348 1 gusting 7 27.8
2017-Sep-26 06:10 343 5 gusting 10 27.8
2017-Sep-26 05:55 354 4 gusting 8 28.3
2017-Sep-26 05:40 331 3 gusting 10 28.3
2017-Sep-26 05:25 003 4 gusting 10 28.3
2017-Sep-26 05:10 344 6 gusting 12 28.3
2017-Sep-26 04:55 331 2 gusting 9 28.3
2017-Sep-26 04:40 325 3 gusting 10 28.9
2017-Sep-26 04:25 324 2 gusting 10 28.9
2017-Sep-26 04:10 002 6 gusting 8 28.9
2017-Sep-26 03:55 345 2 gusting 9 28.9
2017-Sep-26 03:40 335 3 gusting 10 28.9
2017-Sep-26 03:28 011 1 gusting 10 28.9
2017-Sep-26 03:14 347 5 gusting 11 28.3
2017-Sep-26 02:55 314 4 gusting 9 28.9
2017-Sep-26 02:40 322 3 gusting 10 28.3
2017-Sep-26 02:25 341 1 gusting 7 28.9
2017-Sep-26 02:10 310 4 gusting 10 28.3
2017-Sep-26 01:55 319 3 gusting 10 28.3
2017-Sep-26 01:40 309 4 gusting 9 28.3
2017-Sep-26 01:24 317 3 gusting 6 27.8
2017-Sep-26 01:10 331 4 gusting 7 27.8
2017-Sep-26 00:54 048 0 gusting 7 27.2
2017-Sep-26 00:39 033 27.2
2017-Sep-26 00:25 073 4 gusting 8 27.2
2017-Sep-26 00:09 343 2 gusting 6 27.2
2017-Sep-25 23:54 037 0 gusting 4 26.1
2017-Sep-25 23:39 043 1 gusting 6 26.1
2017-Sep-25 23:24 065 26.1
2017-Sep-25 23:09 048 0 gusting 6 25.0
2017-Sep-25 22:54 344 25.0
2017-Sep-25 22:39 334 24.4
2017-Sep-25 22:09 146 22.8
2017-Sep-25 21:54 165 21.1
2017-Sep-25 21:39 165 20.0
2017-Sep-25 21:24 161 18.9
2017-Sep-25 21:09 079 17.2
2017-Sep-25 20:54 078 16.1
2017-Sep-25 20:39 083 15.6
2017-Sep-25 20:23 081 15.0
2017-Sep-25 20:09 081 15.0
2017-Sep-25 19:53 080 15.0
2017-Sep-25 19:38 077 15.0
2017-Sep-25 19:23 076 15.0
2017-Sep-25 19:08 074 15.0
2017-Sep-25 18:53 073 15.0
2017-Sep-25 18:38 072 15.0
2017-Sep-25 18:23 072 15.0
2017-Sep-25 18:09 071 15.6
2017-Sep-25 17:53 069 15.6
2017-Sep-25 17:38 067 16.1
2017-Sep-25 17:23 065 16.1
2017-Sep-25 17:08 065 16.7
2017-Sep-25 16:53 063 16.7
2017-Sep-25 16:38 062 16.7
2017-Sep-25 16:23 060 17.2
2017-Sep-25 16:08 060 17.2
2017-Sep-25 15:53 060 17.2
2017-Sep-25 15:38 059 17.2
2017-Sep-25 15:23 067 16.7
2017-Sep-25 15:08 065 16.7
2017-Sep-25 14:53 064 16.7
2017-Sep-25 14:38 064 16.7
2017-Sep-25 14:23 064 16.7
2017-Sep-25 14:08 063 16.7
2017-Sep-25 13:53 063 17.2
2017-Sep-25 13:38 063 17.2
2017-Sep-25 13:23 059 17.8
2017-Sep-25 13:08 057 18.3
2017-Sep-25 12:53 056 18.3
2017-Sep-25 12:38 056 18.3
2017-Sep-25 12:23 055 18.3
2017-Sep-25 12:08 054 18.9
2017-Sep-25 11:53 054 18.9
2017-Sep-25 11:38 054 19.4
2017-Sep-25 11:23 051 19.4
2017-Sep-25 11:08 053 19.4
2017-Sep-25 10:53 054 19.4
2017-Sep-25 10:38 053 19.4
2017-Sep-25 10:23 053 20.0
2017-Sep-25 10:07 052 20.0
2017-Sep-25 09:52 052 20.6
2017-Sep-25 09:37 050 20.6
2017-Sep-25 09:22 045 21.1
2017-Sep-25 09:07 045 21.1
2017-Sep-25 08:52 042 21.7
2017-Sep-25 08:37 039 22.2
2017-Sep-25 08:22 039 22.8
2017-Sep-25 08:07 044 23.3
2017-Sep-25 07:52 048 23.9
2017-Sep-25 07:37 017 24.4
2017-Sep-25 07:22 025 3 gusting 7 25.0
2017-Sep-25 07:07 025 0 gusting 4 25.6
2017-Sep-25 06:52 063 4 gusting 7 25.6
2017-Sep-25 06:37 001 0 gusting 8 25.6
2017-Sep-25 06:22 051 3 gusting 8 26.1
2017-Sep-25 06:07 031 3 gusting 9 26.1
2017-Sep-25 05:52 040 2 gusting 7 26.7
2017-Sep-25 05:37 029 4 gusting 11 26.7
2017-Sep-25 05:22 009 1 gusting 9 26.7
2017-Sep-25 05:07 060 2 gusting 7 27.2
2017-Sep-25 04:52 037 2 gusting 9 27.2
2017-Sep-25 04:37 037 1 gusting 7 27.2
2017-Sep-25 04:22 085 4 gusting 9 27.2
2017-Sep-25 04:07 062 1 gusting 6 27.8
2017-Sep-25 03:52 027 5 gusting 11 27.2
2017-Sep-25 03:37 062 3 gusting 9 27.2
2017-Sep-25 03:29 035 3 gusting 10 27.2
2017-Sep-25 03:07 064 1 gusting 10 27.8
2017-Sep-25 02:52 027 6 gusting 9 27.2
2017-Sep-25 02:37 068 1 gusting 11 27.8
2017-Sep-25 02:22 062 1 gusting 9 27.2
2017-Sep-25 02:07 057 26.7
2017-Sep-25 01:52 326 3 gusting 7 27.2
2017-Sep-25 01:37 014 3 gusting 6 26.7
2017-Sep-25 01:22 028 0 gusting 9 26.7
2017-Sep-25 01:07 355 2 gusting 6 26.7
2017-Sep-25 00:52 056 4 gusting 10 26.7
2017-Sep-25 00:37 016 1 gusting 6 26.7
2017-Sep-25 00:22 068 3 gusting 11 26.1
2017-Sep-25 00:07 048 0 gusting 5 26.1
2017-Sep-24 23:52 348 3 gusting 10 25.6
2017-Sep-24 23:37 352 1 gusting 6 25.6
2017-Sep-24 23:22 062 25.0
2017-Sep-24 23:06 061 0 gusting 7 25.0
2017-Sep-24 22:51 073 0 gusting 4 25.0
2017-Sep-24 22:36 039 24.4
2017-Sep-24 22:22 067 23.3
2017-Sep-24 22:06 088 22.2
2017-Sep-24 21:51 091 21.1
2017-Sep-24 21:36 094 19.4
2017-Sep-24 21:21 094 17.8
2017-Sep-24 21:06 094 17.2
2017-Sep-24 20:51 094 16.1
2017-Sep-24 20:36 094 15.6
2017-Sep-24 20:21 095 15.0
2017-Sep-24 20:06 096 15.0
2017-Sep-24 19:51 062 15.6
2017-Sep-24 19:36 062 15.6
2017-Sep-24 19:21 062 15.6
2017-Sep-24 19:06 062 15.6